Date,TemperatureHighF,TemperatureAvgF,TemperatureLowF,DewpointHighF,DewpointAvgF,DewpointLowF,HumidityHigh,HumidityAvg,HumidityLow,PressureMaxIn,PressureMinIn,WindSpeedMaxMPH,WindSpeedAvgMPH,GustSpeedMaxMPH,PrecipitationSumIn
2014-1-1,-6.0,-14.5,-20.0,-10.0,-17.7,-23.0,87,85,81,0.00,40.00,4,2,6,0.00
2014-1-2,-8.0,-15.0,-23.0,-12.0,-17.6,-26.0,88,87,85,0.00,40.00,14,7,23,0.00
2014-1-3,24.0,9.5,-8.0,24.0,8.0,-11.0,99,94,88,0.00,40.00,27,16,38,0.00
2014-1-4,9.0,-3.5,-15.0,8.0,-9.0,-99.9,96,80,72,0.00,40.00,29,15,40,0.00
2014-1-5,-16.0,-20.6,-25.0,-21.0,-25.7,-29.0,81,77,71,0.00,40.00,18,11,23,0.00
2014-1-6,-12.0,-19.5,-27.0,-17.0,-24.8,-32.0,80,76,73,0.00,40.00,15,-12,20,0.00
2014-1-7,-5.0,-10.6,-17.0,-10.0,-14.7,-21.0,86,82,77,0.00,40.00,9,5,12,0.00
2014-1-8,-3.0,-12.5,-19.0,-7.0,-15.6,-22.0,87,85,79,0.00,40.00,17,8,24,0.00
2014-1-9,22.0,11.9,-3.0,20.0,9.1,-6.0,91,89,85,0.00,40.00,21,16,35,0.00
2014-1-10,29.0,22.5,17.0,26.0,20.8,16.0,96,93,86,0.00,40.00,18,11,27,0.00
2014-1-11,27.0,22.0,13.0,25.0,18.9,-99.9,99,91,81,0.00,40.00,18,10,25,0.00
2014-1-12,39.0,32.8,24.0,33.0,28.1,19.0,95,83,71,0.00,40.00,21,12,29,0.00
2014-1-13,24.0,18.8,15.0,21.0,16.1,12.0,97,89,74,0.00,40.00,17,7,21,0.00
2014-1-14,15.0,10.7,0.0,15.0,8.6,-7.0,99,92,81,0.00,40.00,21,11,35,0.00
2014-1-15,39.0,12.4,-8.0,31.0,9.5,-10.0,98,88,64,0.00,40.00,28,15,40,0.00
2014-1-16,36.0,6.7,0.0,32.0,3.3,-6.0,99,86,75,0.00,40.00,40,27,54,0.00
2014-1-17,14.0,2.1,-9.0,13.0,-2.1,-11.0,99,83,70,0.00,40.00,17,10,26,0.00
2014-1-18,33.0,17.3,8.0,30.0,14.7,-99.9,99,93,85,0.00,40.00,19,11,28,0.00
2014-1-19,34.0,22.7,9.0,30.0,21.2,7.0,99,94,84,0.00,40.00,19,10,27,0.00
2014-1-20,8.0,-5.8,-19.0,7.0,-8.3,-21.0,96,89,82,0.00,40.00,25,14,32,0.00
2014-1-21,8.0,-4.0,-20.0,6.0,-6.7,-23.0,93,88,85,0.00,40.00,19,11,28,0.00
2014-1-22,4.0,-7.6,-15.0,2.0,-9.6,-20.0,94,90,86,0.00,40.00,30,18,43,0.00
2014-1-23,24.0,-7.8,-22.0,19.0,-10.3,-25.0,92,89,85,0.00,40.00,21,11,31,0.00
2014-1-24,33.0,24.4,6.0,32.0,21.7,-8.0,99,90,59,0.00,40.00,26,15,50,0.00
2014-1-25,6.0,1.1,-7.0,0.0,-6.1,-99.9,92,75,61,0.00,40.00,26,12,39,0.00
2014-1-26,11.0,-1.8,-13.0,8.0,-4.4,-17.0,94,89,84,0.00,40.00,36,20,52,0.00
2014-1-27,-9.0,-15.8,-23.0,-13.0,-19.3,-26.0,86,84,82,0.00,40.00,20,11,32,0.00
2014-1-28,1.0,-10.0,-19.0,-3.0,-13.8,-23.0,86,83,79,0.00,40.00,15,10,21,0.00
2014-1-29,21.0,6.2,-5.0,15.0,1.9,-8.0,90,83,74,0.00,40.00,24,12,30,0.00
2014-1-30,10.0,-3.0,-9.0,6.0,-7.5,-14.0,85,81,77,0.00,40.00,19,11,26,0.00
2014-1-31,7.0,-3.4,-16.0,2.0,-7.8,-20.0,87,81,76,0.00,40.00,14,10,21,0.00
2014-2-1,6.0,1.6,-4.0,2.0,-3.2,-99.9,92,83,73,0.00,40.00,17,9,24,0.00
2014-2-2,17.0,5.6,-4.0,10.0,1.4,-7.0,91,83,71,0.00,40.00,13,8,19,0.00
2014-2-3,14.0,5.3,-6.0,8.0,0.7,-13.0,92,82,69,0.00,40.00,17,10,22,0.00
2014-2-4,4.0,-7.9,-19.0,-5.0,-12.5,-21.0,87,80,67,0.00,40.00,9,6,12,0.00
2014-2-5,1.0,-4.1,-11.0,-4.0,-8.2,-14.0,87,82,76,0.00,40.00,17,8,22,0.00
2014-2-6,9.0,-3.1,-14.0,3.0,-7.4,-18.0,87,82,75,0.00,40.00,25,13,34,0.00
2014-2-7,9.0,2.4,-3.0,0.0,-5.2,-10.0,84,70,62,0.00,40.00,21,10,29,0.00
2014-2-8,3.0,-6.7,-17.0,-1.0,-9.8,-20.0,89,86,80,0.00,40.00,13,5,17,0.00
2014-2-9,-2.0,-9.8,-17.0,-8.0,-13.6,-19.0,89,83,75,0.00,40.00,11,7,15,0.00
2014-2-10,2.0,-10.4,-19.0,-7.0,-14.9,-22.0,87,80,66,0.00,40.00,11,5,17,0.00
2014-2-11,21.0,1.3,-10.0,18.0,-1.5,-13.0,92,87,80,0.00,40.00,24,15,42,0.00
2014-2-12,14.0,1.9,-8.0,6.0,-3.0,-11.0,88,81,69,0.00,40.00,17,8,29,0.00
2014-2-13,16.0,3.8,-5.0,16.0,1.9,-8.0,99,92,76,0.00,40.00,29,-5,43,0.00
2014-2-14,9.0,-1.6,-12.0,-1.0,-6.9,-16.0,89,78,63,0.00,40.00,17,9,26,0.00
2014-2-15,10.0,4.8,-3.0,7.0,0.8,-99.9,91,87,85,0.00,40.00,22,14,35,0.00
2014-2-16,18.0,7.1,-6.0,16.0,4.1,-8.0,97,88,77,0.00,40.00,19,9,32,0.00
2014-2-17,35.0,24.7,17.0,27.0,21.7,16.0,99,89,67,0.00,40.00,14,9,21,0.00
2014-2-18,34.0,27.9,20.0,27.0,23.8,19.0,96,85,74,0.00,40.00,16,-12,20,0.00
2014-2-19,30.0,24.0,16.0,28.0,21.5,14.0,97,90,76,0.00,40.00,14,6,18,0.00
2014-2-20,23.0,14.4,3.0,23.0,12.6,1.0,99,92,79,0.00,40.00,20,12,27,0.00
2014-2-21,9.0,3.0,-2.0,4.0,-0.1,-4.0,91,87,82,0.00,40.00,26,18,34,0.00
2014-2-22,9.0,2.0,-5.0,3.0,-3.4,-99.9,85,81,76,0.00,40.00,21,14,27,0.00
2014-2-23,9.0,4.6,-2.0,4.0,-0.3,-8.0,85,80,76,0.00,40.00,20,15,27,0.00
2014-2-24,2.0,-6.1,-14.0,-4.0,-10.8,-18.0,83,80,73,0.00,40.00,16,-12,22,0.00
2014-2-25,-2.0,-8.8,-15.0,-8.0,-13.5,-19.0,82,79,71,0.00,40.00,22,13,29,0.00
2014-2-26,11.0,0.9,-13.0,6.0,-4.2,-21.0,92,79,68,0.00,40.00,29,19,43,0.00
2014-2-27,-2.0,-11.5,-25.0,-10.0,-17.6,-29.0,83,74,67,0.00,40.00,14,8,22,0.00
2014-2-28,3.0,-3.7,-12.0,-1.0,-8.4,-19.0,86,80,69,0.00,40.00,26,14,37,0.00
2014-3-1,-11.0,-17.7,-24.0,-19.0,-24.3,-99.9,81,74,66,0.00,40.00,14,10,20,0.00
2014-3-2,0.0,-12.3,-23.0,-7.0,-17.7,-28.0,84,76,71,0.00,40.00,14,10,20,0.00
2014-3-3,8.0,-1.4,-13.0,3.0,-5.2,-16.0,93,84,77,0.00,40.00,7,5,11,0.00
2014-3-4,11.0,1.2,-6.0,5.0,-1.8,-8.0,94,88,71,0.00,40.00,10,5,14,0.00
2014-3-5,9.0,2.6,-3.0,3.0,-1.1,-6.0,87,84,76,0.00,40.00,7,3,11,0.00
2014-3-6,34.0,29.2,21.0,33.0,27.4,20.0,99,93,85,0.00,40.00,19,11,29,0.00
2014-3-7,23.0,13.7,2.0,22.0,11.6,0.0,99,92,83,0.00,40.00,24,17,34,0.00
2014-3-8,26.0,15.6,-1.0,23.0,10.3,-99.9,95,84,71,0.00,40.00,16,9,25,0.00
2014-3-9,41.0,35.2,25.0,35.0,31.8,23.0,96,88,77,0.00,40.00,17,-20,26,0.00
2014-3-10,41.0,36.8,32.0,36.0,34.2,31.0,98,90,78,0.00,40.00,17,10,22,0.00
2014-3-11,34.0,24.6,16.0,33.0,21.1,10.0,99,86,75,0.00,40.00,20,12,27,0.00
2014-3-12,29.0,19.0,11.0,29.0,12.9,2.0,99,77,65,0.00,40.00,14,8,22,0.00
2014-3-13,47.0,36.5,27.0,37.0,32.2,27.0,99,86,65,0.00,40.00,20,11,30,0.00
2014-3-14,37.0,22.7,12.0,35.0,20.1,8.0,99,90,84,0.00,40.00,28,17,39,0.00
2014-3-15,14.0,8.7,3.0,8.0,2.1,-99.9,89,78,65,0.00,40.00,16,-24,23,0.00
2014-3-16,30.0,14.2,0.0,24.0,8.2,-2.0,92,78,60,0.00,40.00,24,11,35,0.00
2014-3-17,35.0,30.9,26.0,31.0,27.1,-99.9,99,89,81,0.00,40.00,15,6,23,0.00
2014-3-18,31.0,28.5,26.0,28.0,26.6,25.0,99,93,84,0.00,40.00,14,10,21,0.00
2014-3-19,43.0,30.4,22.0,33.0,25.9,21.0,99,85,52,0.00,40.00,10,4,14,0.00
2014-3-20,40.0,31.0,24.0,34.0,28.0,-99.9,99,93,75,0.00,40.00,11,6,16,0.00
2014-3-21,35.0,18.6,7.0,34.0,15.0,-99.9,99,90,75,0.00,40.00,35,20,47,0.00
2014-3-22,16.0,9.0,3.0,8.0,1.2,-99.9,92,73,64,0.00,40.00,15,9,22,0.00
2014-3-23,22.0,11.6,1.0,11.0,5.0,-1.0,94,76,55,0.00,40.00,9,5,15,0.00
2014-3-24,27.0,15.4,8.0,18.0,10.7,6.0,92,83,60,0.00,40.00,22,11,30,0.00
2014-3-25,24.0,13.8,4.0,11.0,5.2,1.0,92,71,44,0.00,40.00,15,8,21,0.00
2014-3-26,39.0,26.2,17.0,24.0,16.7,10.0,79,68,51,0.00,40.00,16,10,24,0.00
2014-3-27,29.0,24.9,17.0,26.0,18.7,10.0,99,79,50,0.00,40.00,22,17,32,0.00
2014-3-28,31.0,20.1,9.0,15.0,8.3,3.0,82,62,41,0.00,40.00,12,-15,18,0.00
2014-3-29,43.0,33.5,26.0,34.0,20.4,-99.9,83,61,45,0.00,40.00,27,16,41,0.00
2014-3-30,40.0,35.7,24.0,35.0,32.5,19.0,99,89,76,0.00,40.00,26,14,37,0.00
2014-3-31,23.0,17.1,14.0,21.0,16.6,13.0,99,98,84,0.00,40.00,29,25,46,0.00
2014-4-1,22.0,14.1,8.0,16.0,9.3,-99.9,99,84,73,0.00,40.00,26,15,42,0.00
2014-4-2,29.0,19.0,4.0,16.0,9.1,3.0,98,68,45,0.00,40.00,7,4,9,0.00
2014-4-3,36.0,28.4,22.0,34.0,26.1,10.0,99,91,59,0.00,40.00,14,6,20,0.00
2014-4-4,35.0,29.6,27.0,31.0,28.0,26.0,99,94,79,0.00,40.00,17,11,25,0.00
2014-4-5,44.0,34.5,27.0,34.0,28.5,-99.9,96,83,60,0.00,40.00,19,9,29,0.00
2014-4-6,54.0,40.0,28.0,43.0,35.9,27.0,99,86,66,0.00,40.00,9,4,16,0.00
2014-4-7,44.0,37.0,32.0,40.0,35.9,32.0,99,96,86,0.00,40.00,12,7,17,0.00
2014-4-8,52.0,40.2,29.0,38.0,32.7,28.0,99,78,51,0.00,40.00,12,7,21,0.00
2014-4-9,69.0,49.6,37.0,51.0,40.2,34.0,89,71,49,0.00,40.00,25,13,38,0.00
2014-4-10,54.0,44.3,36.0,36.0,33.0,30.0,85,66,43,0.00,40.00,24,14,34,0.00
2014-4-11,51.0,42.0,33.0,44.0,35.7,32.0,94,79,65,0.00,40.00,14,8,22,0.00
2014-4-12,50.0,40.2,35.0,50.0,37.3,-99.9,99,93,81,0.00,40.00,17,9,27,0.00
2014-4-13,33.0,27.8,23.0,32.0,20.0,12.0,95,74,50,0.00,40.00,27,21,43,0.00
2014-4-14,26.0,22.8,18.0,19.0,11.7,6.0,83,63,51,0.00,40.00,19,12,30,0.00
2014-4-15,32.0,23.8,14.0,17.0,9.7,5.0,72,55,44,0.00,40.00,12,6,17,0.00
2014-4-16,40.0,33.3,27.0,17.0,14.3,10.0,59,46,34,0.00,40.00,19,-9,29,0.00
2014-4-17,42.0,32.4,23.0,23.0,18.2,10.0,94,60,30,0.00,40.00,11,7,20,0.00
2014-4-18,52.0,40.9,31.0,31.0,26.6,21.0,77,58,39,0.00,40.00,24,12,37,0.00
2014-4-19,61.0,50.1,41.0,44.0,37.2,-99.9,91,64,45,0.00,40.00,27,17,41,0.00
2014-4-20,71.0,51.3,32.0,41.0,36.5,32.0,99,65,29,0.00,40.00,19,7,33,0.00
2014-4-21,57.0,46.4,37.0,40.0,36.5,33.0,98,70,46,0.00,40.00,26,14,37,0.00
2014-4-22,63.0,48.1,33.0,41.0,35.7,31.0,99,68,32,0.00,40.00,13,-16,20,0.00
2014-4-23,50.0,42.9,39.0,44.0,36.4,30.0,99,80,50,0.00,40.00,21,13,35,0.00
2014-4-24,44.0,41.6,39.0,44.0,41.4,39.0,99,99,99,0.00,40.00,10,6,16,0.00
2014-4-25,48.0,40.8,36.0,39.0,36.2,35.0,99,86,61,0.00,40.00,10,6,14,0.00
2014-4-26,53.0,42.6,34.0,38.0,33.6,-99.9,99,75,52,0.00,40.00,16,9,27,0.00
2014-4-27,45.0,41.0,37.0,39.0,32.9,29.0,98,73,64,0.00,40.00,26,15,39,0.00
2014-4-28,42.0,40.1,37.0,42.0,38.9,37.0,99,95,82,0.00,40.00,17,12,32,0.00
2014-4-29,56.0,44.9,36.0,37.0,30.0,27.0,93,58,34,0.00,40.00,23,14,34,0.00
2014-4-30,43.0,39.7,36.0,40.0,37.5,31.0,99,92,61,0.00,40.00,23,16,32,0.00
2014-5-1,57.0,45.9,37.0,40.0,37.2,35.0,99,75,44,0.00,40.00,22,14,32,0.00
2014-5-2,58.0,50.9,43.0,44.0,38.6,34.0,95,65,46,0.00,40.00,26,15,39,0.00
2014-5-3,45.0,39.9,32.0,42.0,32.1,-99.9,99,78,52,0.00,40.00,19,9,26,0.00
2014-5-4,52.0,39.9,30.0,38.0,30.0,26.0,99,72,40,0.00,40.00,11,5,19,0.00
2014-5-5,54.0,44.2,37.0,43.0,38.2,36.0,99,82,51,0.00,40.00,9,-16,14,0.00
2014-5-6,58.0,48.8,44.0,49.0,44.6,41.0,99,86,60,0.00,40.00,12,9,21,0.00
2014-5-7,49.0,49.0,49.0,47.0,47.0,47.0,93,93,93,0.00,40.00,11,11,15,0.00
2014-5-13,48.0,44.8,42.0,38.0,36.7,36.0,81,73,66,0.00,40.00,16,12,27,0.00
2014-5-14,42.0,38.7,33.0,36.0,32.2,29.0,99,78,62,0.00,40.00,16,10,24,0.00
2014-5-15,54.0,43.0,31.0,35.0,28.8,25.0,99,63,34,0.00,40.00,11,5,24,0.00
2014-5-16,60.0,49.1,33.0,36.0,30.4,27.0,92,53,30,0.00,40.00,12,6,18,0.00
2014-5-17,69.0,55.5,41.0,44.0,36.7,-99.9,79,54,33,0.00,40.00,17,7,24,0.00
2014-5-18,54.0,52.4,49.0,46.0,42.8,40.0,85,70,59,0.00,40.00,7,5,9,0.00
2014-5-20,63.0,57.1,52.0,51.0,45.7,-99.9,90,70,57,0.00,40.00,22,18,35,0.00
2014-5-21,57.0,51.5,47.0,49.0,45.9,43.0,99,82,66,0.00,40.00,19,12,26,0.00
2014-5-22,74.0,56.7,41.0,48.0,39.2,-99.9,99,62,24,0.00,40.00,7,3,11,0.00
2014-5-23,83.0,67.8,51.0,57.0,45.8,36.0,65,47,32,0.00,40.00,21,12,34,0.00
2014-5-24,89.0,75.1,63.0,63.0,55.9,-99.9,76,54,36,0.00,40.00,22,13,30,0.00
2014-5-25,84.0,70.7,63.0,68.0,59.0,51.0,99,70,44,0.00,40.00,21,10,33,0.00
2014-5-26,75.0,62.6,52.0,60.0,55.9,52.0,99,82,46,0.00,40.00,13,8,19,0.00
2014-5-27,87.0,71.7,54.0,61.0,55.2,53.0,99,61,34,0.00,40.00,12,3,17,0.00
2014-5-28,89.0,75.4,61.0,63.0,57.7,50.0,98,59,32,0.00,40.00,14,6,22,0.00
2014-5-29,90.0,77.6,65.0,63.0,54.3,43.0,85,50,23,0.00,40.00,22,11,32,0.00
2014-5-30,83.0,70.3,65.0,68.0,57.5,46.0,99,68,34,0.00,40.00,16,8,26,0.00
2014-5-31,76.0,67.7,64.0,68.0,63.6,-99.9,99,89,69,0.00,40.00,8,4,12,0.00
2014-6-1,80.0,69.1,58.0,66.0,60.8,56.0,99,78,50,0.00,40.00,17,-14,27,0.00
2014-6-2,68.0,60.7,55.0,63.0,58.0,54.0,99,91,69,0.00,40.00,19,11,30,0.00
2014-6-3,77.0,65.4,52.0,57.0,53.9,51.0,99,70,42,0.00,40.00,12,6,16,0.00
2014-6-4,81.0,71.0,57.0,61.0,54.7,49.0,94,61,34,0.00,40.00,9,4,15,0.00
2014-6-5,79.0,68.5,60.0,65.0,59.3,53.0,99,76,44,0.00,40.00,15,10,22,0.00
2014-6-6,65.0,60.0,54.0,59.0,47.0,39.0,94,65,41,0.00,40.00,15,9,22,0.00
2014-6-7,70.0,60.5,53.0,52.0,42.4,-99.9,93,58,31,0.00,40.00,13,5,26,0.00
2014-6-8,72.0,61.0,52.0,55.0,47.4,42.0,78,62,38,0.00,40.00,17,6,35,0.00
2014-6-9,78.0,64.6,51.0,54.0,48.0,42.0,99,61,31,0.00,40.00,15,6,26,0.00
2014-6-10,78.0,68.8,58.0,57.0,51.1,43.0,75,55,40,0.00,40.00,17,8,26,0.00
2014-6-11,66.0,60.0,53.0,62.0,58.5,51.0,99,95,75,0.00,40.00,15,6,24,0.00
2014-6-12,71.0,58.8,49.0,51.0,43.2,37.0,96,61,33,0.00,40.00,24,15,36,0.00
2014-6-13,74.0,64.1,53.0,53.0,48.5,43.0,91,60,36,0.00,40.00,14,6,30,0.00
2014-6-14,67.0,61.8,58.0,63.0,57.4,-99.9,99,90,77,0.00,40.00,20,12,34,0.00
2014-6-15,67.0,60.8,56.0,61.0,58.5,55.0,99,93,70,0.00,40.00,22,10,29,0.00
2014-6-16,78.0,66.2,55.0,60.0,55.3,52.0,95,71,45,0.00,40.00,11,7,16,0.00
2014-6-17,77.0,67.5,58.0,60.0,57.7,55.0,97,73,50,0.00,40.00,15,9,22,0.00
2014-6-18,79.0,69.1,58.0,64.0,60.6,57.0,94,76,60,0.00,40.00,17,10,33,0.00
2014-6-19,69.0,64.6,58.0,68.0,62.7,55.0,99,94,69,0.00,40.00,21,10,37,0.00
2014-6-20,76.0,66.3,56.0,61.0,57.6,55.0,98,76,50,0.00,40.00,14,7,19,0.00
2014-6-21,90.0,73.3,63.0,71.0,60.2,-99.9,92,68,34,0.00,40.00,16,8,24,0.00
2014-6-22,77.0,70.8,61.0,65.0,61.1,56.0,99,74,52,0.00,40.00,16,8,26,0.00
2014-6-23,78.0,68.4,59.0,65.0,61.4,58.0,99,81,52,0.00,40.00,15,7,22,0.00
2014-6-24,65.0,61.1,59.0,64.0,60.6,59.0,99,99,94,0.00,40.00,16,12,22,0.00
2014-6-25,72.0,64.3,58.0,62.0,59.4,58.0,99,85,65,0.00,40.00,11,6,18,0.00
2014-6-26,78.0,67.0,59.0,69.0,62.6,59.0,99,87,70,0.00,40.00,14,9,24,0.00
2014-6-27,84.0,73.3,67.0,71.0,69.1,67.0,99,88,65,0.00,40.00,17,10,29,0.00
2014-6-28,79.0,71.1,66.0,73.0,65.2,-99.9,99,86,58,0.00,40.00,30,11,46,0.00
2014-6-29,75.0,69.5,63.0,64.0,59.6,56.0,96,72,54,0.00,40.00,27,17,40,0.00
2014-6-30,71.0,66.9,63.0,66.0,59.3,56.0,99,78,61,0.00,40.00,29,21,43,0.00
2014-7-1,65.0,57.0,53.0,64.0,54.3,50.0,99,91,78,0.00,40.00,24,15,40,0.00
2014-7-2,73.0,61.5,47.0,57.0,49.2,45.0,99,68,38,0.00,40.00,12,6,19,0.00
2014-7-3,79.0,66.2,52.0,58.0,51.3,47.0,99,65,34,0.00,40.00,8,3,15,0.00
2014-7-4,82.0,70.4,58.0,70.0,60.7,51.0,86,72,62,0.00,40.00,22,11,33,0.00
2014-7-5,92.0,79.8,68.0,76.0,70.2,65.0,96,75,44,0.00,40.00,16,9,22,0.00
2014-7-6,82.0,75.7,68.0,73.0,64.1,56.0,99,70,44,0.00,40.00,22,11,31,0.00
2014-7-7,78.0,70.1,60.0,66.0,62.0,57.0,99,78,52,0.00,40.00,21,9,35,0.00
2014-7-8,73.0,64.5,57.0,61.0,54.8,49.0,99,75,46,0.00,40.00,19,10,28,0.00
2014-7-9,75.0,65.0,53.0,60.0,52.8,48.0,99,69,40,0.00,40.00,12,6,18,0.00
2014-7-10,81.0,71.1,59.0,67.0,57.9,52.0,84,65,49,0.00,40.00,14,9,23,0.00
2014-7-11,84.0,73.4,64.0,71.0,62.2,53.0,99,73,35,0.00,40.00,16,7,23,0.00
2014-7-12,80.0,64.9,56.0,61.0,56.2,53.0,99,76,40,0.00,40.00,21,8,34,0.00
2014-7-13,69.0,61.3,51.0,55.0,49.0,44.0,99,68,41,0.00,40.00,24,12,35,0.00
2014-7-14,66.0,57.4,48.0,54.0,50.8,48.0,99,80,58,0.00,40.00,23,15,34,0.00
2014-7-15,73.0,62.4,49.0,56.0,51.2,49.0,99,71,44,0.00,40.00,9,6,16,0.00
2014-7-16,79.0,66.6,50.0,60.0,53.7,50.0,99,68,42,0.00,40.00,7,3,11,0.00
2014-7-17,82.0,71.0,59.0,60.0,57.0,51.0,93,65,35,0.00,40.00,12,6,20,0.00
2014-7-18,86.0,74.1,64.0,67.0,62.1,59.0,91,69,42,0.00,40.00,24,14,40,0.00
2014-7-19,82.0,69.1,57.0,63.0,57.6,55.0,99,70,40,0.00,40.00,9,6,16,0.00
2014-7-20,93.0,78.2,67.0,73.0,67.4,60.0,99,73,38,0.00,40.00,17,9,26,0.00
2014-7-21,92.0,78.0,65.0,80.0,70.6,65.0,99,80,57,0.00,40.00,44,10,61,0.00
2014-7-22,76.0,69.1,62.0,65.0,58.6,52.0,99,73,48,0.00,40.00,16,9,29,0.00
2014-7-23,75.0,66.9,59.0,62.0,57.8,54.0,97,75,53,0.00,40.00,9,5,13,0.00
2014-7-24,79.0,69.0,59.0,64.0,59.9,57.0,99,74,49,0.00,40.00,19,8,33,0.00
2014-7-25,81.0,71.8,66.0,70.0,63.5,54.0,94,77,40,0.00,40.00,14,7,20,0.00
2014-7-26,75.0,67.5,62.0,62.0,57.3,53.0,88,70,52,0.00,40.00,25,13,37,0.00
2014-7-27,67.0,62.6,59.0,62.0,58.8,56.0,99,88,71,0.00,40.00,21,13,29,0.00
2014-7-28,74.0,66.0,58.0,59.0,55.8,51.0,95,72,45,0.00,40.00,12,6,18,0.00
2014-7-29,77.0,66.5,54.0,60.0,55.1,52.0,99,71,42,0.00,40.00,9,4,14,0.00
2014-7-30,80.0,68.2,55.0,62.0,56.4,53.0,99,71,41,0.00,40.00,12,4,16,0.00
2014-7-31,83.0,69.5,60.0,65.0,59.1,59.0,99,75,46,0.00,40.00,8,4,11,0.00
2014-8-1,84.0,71.7,59.0,65.0,60.0,57.0,99,70,41,0.00,40.00,7,4,11,0.00
2014-8-2,88.0,71.8,62.0,68.0,62.2,58.0,97,75,37,0.00,40.00,8,3,16,0.00
2014-8-3,79.0,69.4,58.0,65.0,57.4,51.0,99,70,40,0.00,40.00,10,5,16,0.00
2014-8-4,81.0,70.2,54.0,60.0,54.4,50.0,99,63,37,0.00,40.00,6,2,11,0.00
2014-8-5,83.0,70.4,59.0,62.0,58.3,57.0,97,69,42,0.00,40.00,6,2,9,0.00
2014-8-6,77.0,64.6,60.0,65.0,62.1,59.0,99,93,58,0.00,40.00,6,2,10,0.00
2014-8-8,84.0,78.2,70.0,68.0,64.8,62.0,85,65,50,0.00,40.00,12,8,21,0.00
2014-8-9,81.0,72.0,63.0,67.0,62.9,61.0,99,74,52,0.00,40.00,11,7,20,0.00
2014-8-10,75.0,69.3,64.0,68.0,60.0,52.0,99,75,46,0.00,40.00,16,9,25,0.00
2014-8-11,76.0,64.6,51.0,58.0,52.8,48.0,99,70,41,0.00,40.00,14,8,24,0.00
2014-8-12,83.0,70.6,54.0,64.0,56.3,52.0,96,65,39,0.00,40.00,11,5,16,0.00
2014-8-13,83.0,69.9,56.0,63.0,58.6,55.0,99,71,40,0.00,40.00,7,5,12,0.00
2014-8-14,82.0,71.7,61.0,67.0,61.3,56.0,90,72,52,0.00,40.00,10,7,17,0.00
2014-8-15,87.0,77.1,67.0,72.0,68.4,66.0,99,77,51,0.00,40.00,11,6,17,0.00
2014-8-16,78.0,71.8,67.0,73.0,67.4,63.0,99,85,69,0.00,40.00,11,6,19,0.00
2014-8-17,79.0,70.0,64.0,70.0,66.3,62.0,99,89,70,0.00,40.00,11,7,17,0.00
2014-8-18,76.0,68.4,63.0,69.0,65.2,62.0,99,91,68,0.00,40.00,14,5,20,0.00
2014-8-19,83.0,70.6,60.0,67.0,63.1,59.0,99,80,49,0.00,40.00,7,4,12,0.00
2014-8-20,85.0,74.2,63.0,69.0,65.3,63.0,99,76,52,0.00,40.00,13,6,19,0.00
2014-8-21,79.0,72.5,68.0,71.0,68.8,67.0,99,89,71,0.00,40.00,10,4,16,0.00
2014-8-22,72.0,67.7,64.0,69.0,66.0,63.0,99,94,77,0.00,40.00,12,9,18,0.00
2014-8-23,76.0,65.7,59.0,69.0,63.9,59.0,99,93,77,0.00,40.00,14,9,22,0.00
2014-8-24,80.0,70.8,63.0,70.0,64.8,54.0,99,84,55,0.00,40.00,19,10,30,0.00
2014-8-25,62.0,57.8,50.0,56.0,51.6,48.0,99,80,66,0.00,40.00,23,13,34,0.00
2014-8-26,70.0,57.8,46.0,56.0,49.7,46.0,99,77,48,0.00,40.00,8,4,16,0.00
2014-8-27,76.0,62.6,51.0,60.0,53.6,48.0,99,77,40,0.00,40.00,7,5,14,0.00
2014-8-28,76.0,67.8,61.0,67.0,63.8,60.0,97,87,74,0.00,40.00,13,9,25,0.00
2014-8-29,76.0,66.6,61.0,67.0,64.0,55.0,99,92,72,0.00,40.00,21,8,30,0.00
2014-8-30,76.0,62.3,46.0,61.0,51.4,46.0,99,71,38,0.00,40.00,12,6,18,0.00
2014-8-31,73.0,65.3,60.0,66.0,61.9,59.0,99,90,66,0.00,40.00,13,7,21,0.00
2014-9-1,76.0,62.0,52.0,60.0,55.1,52.0,99,81,45,0.00,40.00,7,4,14,0.00
2014-9-2,79.0,64.4,52.0,57.0,53.5,51.0,98,71,40,0.00,40.00,17,8,29,0.00
2014-9-3,82.0,65.6,48.0,58.0,53.6,48.0,99,71,35,0.00,40.00,10,5,21,0.00
2014-9-4,73.0,64.7,53.0,64.0,58.2,50.0,99,81,50,0.00,40.00,24,12,35,0.00
2014-9-5,72.0,59.3,44.0,52.0,47.7,44.0,99,70,38,0.00,40.00,14,9,26,0.00
2014-9-6,79.0,62.6,48.0,53.0,48.1,45.0,99,65,30,0.00,40.00,19,7,26,0.00
2014-9-7,80.0,65.6,49.0,61.0,54.6,49.0,99,72,44,0.00,40.00,14,6,24,0.00
2014-9-8,85.0,67.1,55.0,62.0,58.3,51.0,95,76,41,0.00,40.00,20,13,29,0.00
2014-9-9,54.0,50.0,46.0,51.0,47.8,45.0,99,92,81,0.00,40.00,16,12,26,0.00
2014-9-10,56.0,48.9,45.0,45.0,37.0,31.0,95,66,39,0.00,40.00,19,14,29,0.00
2014-9-11,53.0,47.0,40.0,41.0,37.3,33.0,96,71,47,0.00,40.00,13,8,22,0.00
2014-9-12,56.0,46.8,38.0,40.0,34.6,26.0,99,68,34,0.00,40.00,11,5,18,0.00
2014-9-13,63.0,51.6,39.0,51.0,40.9,36.0,94,69,43,0.00,40.00,21,11,34,0.00
2014-9-14,56.0,50.4,44.0,48.0,44.8,42.0,99,83,58,0.00,40.00,14,8,19,0.00
2014-9-15,67.0,52.8,38.0,46.0,40.6,37.0,99,69,36,0.00,40.00,13,6,22,0.00
2014-9-16,74.0,59.0,46.0,46.0,43.2,40.0,82,59,33,0.00,40.00,11,7,16,0.00
2014-9-17,64.0,54.8,42.0,53.0,47.3,42.0,99,77,56,0.00,40.00,14,7,20,0.00
2014-9-18,73.0,56.2,39.0,60.0,49.6,38.0,99,82,53,0.00,40.00,17,8,31,0.00
2014-9-19,82.0,68.6,61.0,68.0,60.3,55.0,99,77,41,0.00,40.00,20,14,32,0.00
2014-9-20,66.0,56.7,49.0,57.0,52.4,48.0,99,86,56,0.00,40.00,24,9,37,0.00
2014-9-21,67.0,55.3,47.0,53.0,49.7,46.0,99,84,50,0.00,40.00,12,7,18,0.00
2014-9-22,78.0,62.3,48.0,53.0,47.5,44.0,99,66,31,0.00,40.00,12,7,16,0.00
2014-9-23,77.0,64.8,54.0,59.0,52.6,48.0,88,67,39,0.00,40.00,17,11,32,0.00
2014-9-24,68.0,62.8,58.0,62.0,59.6,54.0,99,90,76,0.00,40.00,11,8,17,0.00
2014-9-25,82.0,67.3,58.0,67.0,61.5,58.0,99,84,51,0.00,40.00,12,7,17,0.00
2014-9-26,83.0,72.7,63.0,67.0,61.3,56.0,97,71,41,0.00,40.00,21,12,35,0.00
2014-9-27,87.0,72.4,63.0,62.0,58.8,56.0,95,65,36,0.00,40.00,13,10,24,0.00
2014-9-28,66.0,54.6,49.0,63.0,52.6,49.0,99,93,74,0.00,40.00,20,13,30,0.00
2014-9-29,61.0,50.6,45.0,49.0,46.5,44.0,99,88,59,0.00,40.00,12,7,19,0.00
2014-9-30,62.0,51.3,40.0,49.0,44.2,40.0,99,80,50,0.00,40.00,20,10,35,0.00
2014-10-1,66.0,61.6,58.0,59.0,54.7,49.0,90,79,64,0.00,40.00,22,15,35,0.00